createdAt,value
2022-08-07T00:00:40.110Z,102548.84
2022-08-07T00:05:41.931Z,102552.16
2022-08-07T00:10:48.384Z,102544.22
2022-08-07T00:15:59.315Z,102544.84
2022-08-07T00:21:08.167Z,102542.69
2022-08-07T00:26:49.389Z,102540.59
2022-08-07T00:31:50.062Z,102526.59
2022-08-07T00:36:53.270Z,102528.09
2022-08-07T00:42:02.211Z,102528.88
2022-08-07T00:47:15.573Z,102522.28
2022-08-07T00:52:29.015Z,102525.53
2022-08-07T00:57:34.939Z,102516.28
2022-08-07T01:02:36.695Z,102521.94
2022-08-07T01:07:41.315Z,102515.66
2022-08-07T01:12:53.516Z,102511.69
2022-08-07T01:17:56.380Z,102514.31
2022-08-07T01:23:12.718Z,102512.97
2022-08-07T01:28:15.009Z,102511.22
2022-08-07T01:33:17.212Z,102512.84
2022-08-07T01:38:25.241Z,102501.63
2022-08-07T01:43:34.734Z,102501.34
2022-08-07T01:48:46.844Z,102498.41
2022-08-07T01:54:08.441Z,102495.75
2022-08-07T01:59:24.653Z,102496.72
2022-08-07T02:04:56.148Z,102500.59
2022-08-07T02:10:00.764Z,102492.47
2022-08-07T02:15:06.687Z,102494.56
2022-08-07T02:20:17.111Z,102496.56
2022-08-07T02:26:10.921Z,102488.25
2022-08-07T02:30:46.316Z,102484.31
2022-08-07T02:36:26.796Z,102480.34
2022-08-07T02:41:13.895Z,102483.66
2022-08-07T02:46:26.006Z,102485.59
2022-08-07T02:51:49.726Z,102487.94
2022-08-07T02:56:56.213Z,102482.50
2022-08-07T03:02:01.321Z,102476.09
2022-08-07T03:07:10.452Z,102474.03
2022-08-07T03:12:21.691Z,102476.16
2022-08-07T03:17:24.079Z,102476.06
2022-08-07T03:22:30.322Z,102478.78
2022-08-07T03:27:58.788Z,102478.16
2022-08-07T03:32:59.244Z,102482.44
2022-08-07T03:38:07.199Z,102489.63
2022-08-07T03:43:14.426Z,102479.13
2022-08-07T03:48:16.683Z,102477.00
2022-08-07T03:53:18.383Z,102476.63
2022-08-07T03:59:08.167Z,102478.06
2022-08-07T04:03:55.513Z,102480.81
2022-08-07T04:08:57.693Z,102486.13
2022-08-07T04:14:10.137Z,102488.88
2022-08-07T04:19:25.429Z,102486.69
2022-08-07T04:24:48.771Z,102485.25
2022-08-07T04:30:01.565Z,102497.66
2022-08-07T04:35:05.963Z,102504.31
2022-08-07T04:40:08.307Z,102496.22
2022-08-07T04:45:11.859Z,102504.19
2022-08-07T04:50:42.765Z,102511.94
2022-08-07T04:58:15.190Z,102512.13
2022-08-07T05:01:50.620Z,102509.22
2022-08-07T05:07:20.409Z,102519.06
2022-08-07T05:12:30.528Z,102504.25
2022-08-07T05:17:52.390Z,102505.22
2022-08-07T05:22:58.370Z,102506.75
2022-08-07T05:28:03.087Z,102501.06
2022-08-07T05:33:22.418Z,102499.38
2022-08-07T05:38:58.255Z,102503.94
2022-08-07T05:44:11.941Z,102501.19
2022-08-07T05:49:14.586Z,102503.13
2022-08-07T05:54:30.708Z,102508.22
2022-08-07T05:59:56.098Z,102511.38
2022-08-07T06:05:05.999Z,102505.59
2022-08-07T06:10:15.086Z,102505.72
2022-08-07T06:15:19.925Z,102497.28
2022-08-07T06:20:31.643Z,102494.41
2022-08-07T06:25:36.190Z,102487.69
2022-08-07T06:30:42.646Z,102489.97
2022-08-07T06:36:06.288Z,102488.00
2022-08-07T06:41:15.838Z,102486.81
2022-08-07T06:46:34.983Z,102480.00
2022-08-07T06:51:49.620Z,102460.81
2022-08-07T06:56:53.405Z,102455.59
2022-08-07T07:01:58.633Z,102465.56
2022-08-07T07:07:02.107Z,102446.50
2022-08-07T07:12:35.423Z,102453.63
2022-08-07T07:17:50.580Z,102447.19
2022-08-07T07:24:10.287Z,102435.81
2022-08-07T07:28:42.106Z,102442.97
2022-08-07T07:33:56.524Z,102442.28
2022-08-07T07:39:01.492Z,102443.81
2022-08-07T07:44:18.079Z,102448.41
2022-08-07T07:50:31.600Z,102445.16
2022-08-07T07:54:52.114Z,102448.78
2022-08-07T07:59:55.580Z,102448.81
2022-08-07T08:04:57.486Z,102441.78
2022-08-07T08:10:04.816Z,102441.94
2022-08-07T08:15:08.083Z,102441.06
2022-08-07T08:20:22.491Z,102427.09
2022-08-07T08:25:51.084Z,102433.28
2022-08-07T08:30:59.750Z,102412.16
2022-08-07T08:36:03.571Z,102408.66
2022-08-07T08:41:18.703Z,102402.41
2022-08-07T08:46:44.772Z,102409.50
2022-08-07T08:52:13.744Z,102401.59
2022-08-07T08:57:35.416Z,102389.94
2022-08-07T09:02:39.651Z,102386.06
2022-08-07T09:08:24.088Z,102398.53
2022-08-07T09:13:59.488Z,102398.03
2022-08-07T09:19:53.707Z,102396.16
2022-08-07T09:25:17.794Z,102393.34
2022-08-07T09:30:20.709Z,102386.91
2022-08-07T09:36:04.798Z,102382.69
2022-08-07T09:41:58.332Z,102380.66
2022-08-07T09:47:50.209Z,102371.41
2022-08-07T09:52:48.549Z,102355.69
2022-08-07T09:58:08.499Z,102357.19
2022-08-07T10:04:05.251Z,102339.13
2022-08-07T10:09:08.623Z,102339.25
2022-08-07T10:14:23.131Z,102331.41
2022-08-07T10:20:12.958Z,102329.34
2022-08-07T10:25:42.278Z,102332.47
2022-08-07T10:31:11.625Z,102320.66
2022-08-07T10:36:29.631Z,102313.59
2022-08-07T10:42:09.241Z,102309.97
2022-08-07T10:47:53.626Z,102308.69
2022-08-07T10:53:12.303Z,102309.28
2022-08-07T10:58:33.318Z,102303.84
2022-08-07T11:03:51.311Z,102299.66
2022-08-07T11:09:12.927Z,102287.22
2022-08-07T11:14:46.243Z,102286.22
2022-08-07T11:20:22.432Z,102277.72
2022-08-07T11:25:36.187Z,102260.72
2022-08-07T11:31:08.835Z,102258.19
2022-08-07T11:36:34.773Z,102253.81
2022-08-07T11:42:02.157Z,102257.31
2022-08-07T11:47:19.209Z,102243.84
2022-08-07T11:52:41.788Z,102246.63
2022-08-07T11:57:59.534Z,102229.31
2022-08-07T12:03:44.406Z,102232.59
2022-08-07T12:08:55.857Z,102225.91
2022-08-07T12:14:08.702Z,102223.72
2022-08-07T12:19:35.643Z,102221.50
2022-08-07T12:26:22.316Z,102232.84
2022-08-07T12:31:22.279Z,102218.09
2022-08-07T12:36:33.588Z,102221.19
2022-08-07T12:41:49.497Z,102211.06
2022-08-07T12:47:08.726Z,102210.97
2022-08-07T12:52:19.180Z,102207.88
2022-08-07T12:57:29.901Z,102196.25
2022-08-07T13:02:49.454Z,102205.66
2022-08-07T13:08:23.260Z,102194.34
2022-08-07T13:13:57.416Z,102178.03
2022-08-07T13:19:45.637Z,102179.22
2022-08-07T13:25:02.940Z,102173.59
2022-08-07T13:30:19.714Z,102170.78
2022-08-07T13:36:05.636Z,102167.94
2022-08-07T13:41:48.527Z,102167.34
2022-08-07T13:46:55.057Z,102153.28
2022-08-07T13:52:22.766Z,102163.09
2022-08-07T13:57:26.528Z,102154.19
2022-08-07T14:02:51.171Z,102161.72
2022-08-07T14:08:01.462Z,102157.81
2022-08-07T14:13:06.180Z,102157.50
2022-08-07T14:18:28.924Z,102153.22
2022-08-07T14:24:00.282Z,102145.66
2022-08-07T14:29:06.015Z,102156.66
2022-08-07T14:34:29.728Z,102151.28
2022-08-07T14:40:18.276Z,102150.72
2022-08-07T14:50:27.950Z,102154.78
2022-08-07T14:55:32.796Z,102144.19
2022-08-07T15:00:35.170Z,102151.78
2022-08-07T15:05:55.181Z,102146.56
2022-08-07T15:11:15.043Z,102157.34
2022-08-07T15:16:31.011Z,102152.16
2022-08-07T15:21:59.616Z,102148.44
2022-08-07T15:27:19.331Z,102147.44
2022-08-07T15:43:55.926Z,102137.84
2022-08-07T15:49:11.839Z,102131.91
2022-08-07T15:54:15.897Z,102132.47
2022-08-07T15:59:20.438Z,102117.28
2022-08-07T16:04:44.131Z,102119.19
2022-08-07T16:10:05.904Z,102111.41
2022-08-07T16:15:57.842Z,102122.03
2022-08-07T16:22:01.733Z,102118.25
2022-08-07T16:26:30.524Z,102112.94
2022-08-07T16:31:58.630Z,102123.75
2022-08-07T16:38:03.725Z,102123.06
2022-08-07T16:43:03.687Z,102117.06
2022-08-07T16:48:15.705Z,102106.41
2022-08-07T16:53:55.393Z,102108.13
2022-08-07T16:59:11.026Z,102111.03
2022-08-07T17:04:57.962Z,102114.03
2022-08-07T17:10:32.634Z,102114.25
2022-08-07T17:15:54.082Z,102115.09
2022-08-07T17:21:01.152Z,102112.50
2022-08-07T17:26:30.615Z,102119.19
2022-08-07T17:32:03.145Z,102124.06
2022-08-07T17:38:05.632Z,102116.06
2022-08-07T17:43:17.744Z,102126.50
2022-08-07T17:48:30.710Z,102126.31
2022-08-07T17:54:02.026Z,102123.78
2022-08-07T17:59:09.748Z,102128.91
2022-08-07T18:04:35.113Z,102134.31
2022-08-07T18:10:05.555Z,102150.69
2022-08-07T18:15:08.586Z,102151.75
2022-08-07T18:21:11.944Z,102150.25
2022-08-07T18:25:44.877Z,102148.81
2022-08-07T18:31:04.385Z,102162.94
2022-08-07T18:36:14.455Z,102163.84
2022-08-07T18:41:45.207Z,102164.94
2022-08-07T18:47:11.311Z,102173.81
2022-08-07T18:52:53.642Z,102169.38
2022-08-07T18:58:19.778Z,102174.78
2022-08-07T19:03:43.018Z,102189.72
2022-08-07T19:08:56.573Z,102188.00
2022-08-07T19:14:20.408Z,102193.25
2022-08-07T19:19:46.584Z,102195.91
2022-08-07T19:24:52.245Z,102198.53
2022-08-07T19:31:01.227Z,102206.38
2022-08-07T19:35:26.828Z,102212.47
2022-08-07T19:40:36.662Z,102223.78
2022-08-07T19:46:05.427Z,102226.31
2022-08-07T19:51:19.910Z,102237.59
2022-08-07T19:57:52.417Z,102235.78
2022-08-07T20:01:57.408Z,102243.53
2022-08-07T20:07:00.546Z,102245.78
2022-08-07T20:12:31.716Z,102245.78
2022-08-07T20:17:29.550Z,102246.56
2022-08-07T20:22:34.743Z,102251.69
2022-08-07T20:27:47.599Z,102254.22
2022-08-07T20:32:59.919Z,102248.75
2022-08-07T20:38:06.542Z,102259.03
2022-08-07T20:43:14.619Z,102265.00
2022-08-07T20:48:29.771Z,102262.31
2022-08-07T20:54:02.220Z,102267.28
2022-08-07T20:59:01.675Z,102272.56
2022-08-07T21:04:22.055Z,102273.16
2022-08-07T21:09:51.955Z,102284.53
2022-08-07T21:14:57.030Z,102281.69
2022-08-07T21:20:04.389Z,102279.81
2022-08-07T21:25:38.634Z,102277.00
2022-08-07T21:30:56.859Z,102275.97
2022-08-07T21:36:11.795Z,102278.47
2022-08-07T21:41:38.306Z,102286.81
2022-08-07T21:47:01.315Z,102291.84
2022-08-07T21:52:18.309Z,102293.41
2022-08-07T21:58:01.529Z,102296.59
2022-08-07T22:03:18.846Z,102297.66
2022-08-07T22:08:51.761Z,102304.53
2022-08-07T22:13:55.920Z,102305.06
2022-08-07T22:19:18.038Z,102310.97
2022-08-07T22:24:37.589Z,102315.25
2022-08-07T22:29:50.947Z,102320.97
2022-08-07T22:34:56.822Z,102328.59
2022-08-07T22:40:10.515Z,102332.59
2022-08-07T22:46:40.702Z,102340.53
2022-08-07T22:50:55.649Z,102344.56
2022-08-07T22:56:08.577Z,102341.88
2022-08-07T23:01:49.430Z,102347.50
2022-08-07T23:07:39.816Z,102355.41
2022-08-07T23:12:51.896Z,102349.88
2022-08-07T23:18:09.531Z,102359.28
2022-08-07T23:24:06.528Z,102364.34
2022-08-07T23:29:43.621Z,102353.50
2022-08-07T23:35:37.713Z,102355.97
2022-08-07T23:40:51.641Z,102352.31
2022-08-07T23:46:23.804Z,102362.19
2022-08-07T23:53:00.214Z,102360.56
2022-08-07T23:57:05.075Z,102366.75
